createdAt,value
2023-03-21T00:00:20.509Z,72.31
2023-03-21T00:04:23.152Z,70.16
2023-03-21T00:08:26.058Z,72.45
2023-03-21T00:12:27.461Z,73.08
2023-03-21T00:16:38.981Z,70.50
2023-03-21T00:20:41.981Z,68.78
2023-03-21T00:24:43.384Z,68.92
2023-03-21T00:28:44.801Z,68.14
2023-03-21T00:32:55.452Z,69.22
2023-03-21T00:36:57.412Z,71.19
2023-03-21T00:41:04.624Z,72.28
2023-03-21T00:45:09.599Z,73.48
2023-03-21T00:49:12.410Z,72.59
2023-03-21T00:53:14.832Z,73.46
2023-03-21T00:57:16.842Z,70.58
2023-03-21T01:01:18.808Z,74.04
2023-03-21T01:05:22.367Z,73.40
2023-03-21T01:09:24.470Z,72.58
2023-03-21T01:13:25.899Z,73.53
2023-03-21T01:17:27.361Z,70.37
2023-03-21T01:21:30.373Z,71.93
2023-03-21T01:25:31.749Z,73.63
2023-03-21T01:29:33.112Z,71.24
2023-03-21T01:33:34.972Z,72.03
2023-03-21T01:37:37.994Z,72.32
2023-03-21T01:41:43.989Z,72.09
2023-03-21T01:46:26.210Z,71.69
2023-03-21T01:50:28.717Z,71.46
2023-03-21T01:54:35.919Z,71.63
2023-03-21T01:58:38.863Z,72.64
2023-03-21T02:02:44.158Z,72.35
2023-03-21T02:06:51.309Z,70.88
2023-03-21T02:10:54.982Z,70.36
2023-03-21T02:14:57.023Z,69.78
2023-03-21T02:19:12.651Z,69.48
2023-03-21T02:23:59.864Z,71.08
2023-03-21T02:28:09.489Z,72.03
2023-03-21T02:32:28.369Z,73.25
2023-03-21T02:36:55.528Z,74.57
2023-03-21T02:41:13.224Z,74.22
2023-03-21T02:45:21.599Z,74.74
2023-03-21T02:49:26.761Z,74.41
2023-03-21T02:53:32.489Z,72.58
2023-03-21T02:57:42.685Z,72.10
2023-03-21T03:01:45.314Z,72.78
2023-03-21T03:05:51.246Z,71.90
2023-03-21T03:10:08.188Z,70.77
2023-03-21T03:14:56.533Z,70.36
2023-03-21T03:19:00.084Z,70.35
2023-03-21T03:23:13.641Z,70.96
2023-03-21T03:27:19.396Z,71.61
2023-03-21T03:31:25.134Z,72.35
2023-03-21T03:35:26.890Z,72.48
2023-03-21T03:39:40.966Z,72.01
2023-03-21T03:43:47.784Z,70.77
2023-03-21T03:47:57.356Z,71.76
2023-03-21T03:52:03.872Z,70.82
2023-03-21T03:56:07.960Z,70.63
2023-03-21T04:00:13.313Z,70.13
2023-03-21T04:04:15.605Z,69.89
2023-03-21T04:08:17.209Z,69.88
2023-03-21T04:12:18.793Z,69.93
2023-03-21T04:16:21.726Z,70.15
2023-03-21T04:20:43.235Z,70.07
2023-03-21T04:24:44.891Z,70.75
2023-03-21T04:28:46.293Z,70.05
2023-03-21T04:32:49.007Z,70.54
2023-03-21T04:36:50.733Z,70.05
2023-03-21T04:40:52.288Z,71.76
2023-03-21T04:44:53.712Z,70.65
2023-03-21T04:48:56.484Z,73.09
2023-03-21T04:52:58.070Z,70.58
2023-03-21T04:56:59.597Z,70.74
2023-03-21T05:01:01.035Z,70.18
2023-03-21T05:05:04.227Z,70.84
2023-03-21T05:09:06.119Z,70.18
2023-03-21T05:13:07.652Z,70.33
2023-03-21T05:17:09.239Z,70.48
2023-03-21T05:21:11.948Z,69.97
2023-03-21T05:25:13.578Z,70.29
2023-03-21T05:29:15.023Z,70.50
2023-03-21T05:33:16.593Z,70.45
2023-03-21T05:37:19.288Z,70.49
2023-03-21T05:41:20.714Z,70.87
2023-03-21T05:45:22.275Z,72.13
2023-03-21T05:49:23.687Z,73.43
2023-03-21T05:53:26.684Z,73.23
2023-03-21T05:57:28.282Z,74.55
2023-03-21T06:01:29.696Z,73.82
2023-03-21T06:05:31.231Z,74.08
2023-03-21T06:09:34.437Z,74.43
2023-03-21T06:13:35.836Z,75.20
2023-03-21T06:17:37.355Z,74.35
2023-03-21T06:21:38.852Z,74.05
2023-03-21T06:25:41.629Z,74.17
2023-03-21T06:29:43.329Z,74.48
2023-03-21T06:33:44.741Z,74.22
2023-03-21T06:37:46.160Z,74.74
2023-03-21T06:41:48.967Z,75.40
2023-03-21T06:45:50.377Z,77.78
2023-03-21T06:49:51.926Z,78.76
2023-03-21T06:53:53.366Z,80.20
2023-03-21T06:57:56.912Z,82.30
2023-03-21T07:01:58.630Z,83.86
2023-03-21T07:06:04.465Z,85.00
2023-03-21T07:10:06.642Z,85.07
2023-03-21T07:14:09.483Z,85.78
2023-03-21T07:18:10.888Z,84.94
2023-03-21T07:22:12.284Z,86.25
2023-03-21T07:26:13.706Z,86.88
2023-03-21T07:30:17.271Z,86.58
2023-03-21T07:34:18.752Z,87.18
2023-03-21T07:38:21.033Z,87.20
2023-03-21T07:42:22.509Z,86.43
2023-03-21T07:46:25.366Z,85.79
2023-03-21T07:50:26.962Z,86.83
2023-03-21T07:54:28.669Z,87.55
2023-03-21T07:58:30.309Z,87.22
2023-03-21T08:02:33.114Z,86.45
2023-03-21T08:06:34.553Z,86.08
2023-03-21T08:10:36.054Z,87.60
2023-03-21T08:14:37.957Z,87.37
2023-03-21T08:18:40.657Z,87.38
2023-03-21T08:22:42.644Z,88.04
2023-03-21T08:26:44.662Z,87.28
2023-03-21T08:30:46.195Z,87.12
2023-03-21T08:34:49.184Z,87.32
2023-03-21T08:38:50.657Z,87.16
2023-03-21T08:42:52.043Z,87.39
2023-03-21T08:46:53.449Z,87.90
2023-03-21T08:50:56.257Z,87.97
2023-03-21T08:54:57.799Z,87.70
2023-03-21T08:58:59.199Z,88.25
2023-03-21T09:03:00.823Z,87.25
2023-03-21T09:07:03.815Z,87.74
2023-03-21T09:11:05.690Z,87.97
2023-03-21T09:15:08.649Z,87.71
2023-03-21T09:19:10.426Z,86.18
2023-03-21T09:23:15.937Z,86.71
2023-03-21T09:27:17.680Z,85.50
2023-03-21T09:31:19.362Z,84.71
2023-03-21T09:35:22.089Z,84.55
2023-03-21T09:39:24.866Z,84.70
2023-03-21T09:43:38.993Z,85.02
2023-03-21T09:47:45.229Z,84.78
2023-03-21T09:51:50.121Z,85.41
2023-03-21T09:55:52.972Z,86.88
2023-03-21T09:59:56.185Z,86.81
2023-03-21T10:04:00.854Z,86.16
2023-03-21T10:08:06.566Z,85.87
2023-03-21T10:12:16.288Z,86.08
2023-03-21T10:16:26.247Z,85.83
2023-03-21T10:20:30.528Z,85.92
2023-03-21T10:24:34.004Z,85.13
2023-03-21T10:28:52.349Z,84.17
2023-03-21T10:32:59.489Z,83.91
2023-03-21T10:37:02.967Z,83.43
2023-03-21T10:41:04.525Z,81.44
2023-03-21T10:45:14.930Z,79.55
2023-03-21T10:49:16.601Z,79.05
2023-03-21T10:53:20.896Z,78.84
2023-03-21T10:57:24.092Z,79.16
2023-03-21T11:01:31.349Z,79.48
2023-03-21T11:05:38.794Z,79.99
2023-03-21T11:09:46.311Z,80.05
2023-03-21T11:13:56.242Z,81.05
2023-03-21T11:17:59.798Z,81.44
2023-03-21T11:22:06.307Z,81.29
2023-03-21T11:26:10.592Z,81.66
2023-03-21T11:30:20.925Z,81.73
2023-03-21T11:34:31.413Z,81.95
2023-03-21T11:38:36.968Z,82.44
2023-03-21T11:42:43.191Z,83.45
2023-03-21T11:46:44.613Z,83.57
2023-03-21T11:50:50.294Z,85.32
2023-03-21T11:55:03.548Z,85.18
2023-03-21T11:59:22.344Z,85.65
2023-03-21T12:04:00.942Z,86.12
2023-03-21T12:08:12.784Z,86.06
2023-03-21T12:12:38.937Z,86.90
2023-03-21T12:16:53.075Z,87.11
2023-03-21T12:20:59.094Z,85.43
2023-03-21T12:25:07.461Z,86.56
2023-03-21T12:29:30.299Z,85.81
2023-03-21T12:33:47.399Z,86.72
2023-03-21T12:37:58.043Z,84.04
2023-03-21T12:42:14.441Z,83.08
2023-03-21T12:46:22.347Z,83.57
2023-03-21T12:50:29.692Z,82.49
2023-03-21T12:54:36.019Z,81.22
2023-03-21T12:58:47.935Z,79.29
2023-03-21T13:02:53.880Z,78.84
2023-03-21T13:06:57.621Z,78.39
2023-03-21T13:11:01.354Z,76.38
2023-03-21T13:15:23.790Z,76.16
2023-03-21T13:19:31.778Z,75.50
2023-03-21T13:23:35.717Z,75.09
2023-03-21T13:27:38.336Z,74.57
2023-03-21T13:31:52.085Z,74.58
2023-03-21T13:35:59.258Z,74.71
2023-03-21T13:40:02.936Z,72.96
2023-03-21T13:44:25.644Z,74.36
2023-03-21T13:48:31.429Z,74.82
2023-03-21T13:52:32.887Z,72.94
2023-03-21T13:56:50.076Z,72.45
2023-03-21T14:01:21.030Z,72.19
2023-03-21T14:05:25.820Z,72.31
2023-03-21T14:09:31.093Z,73.32
2023-03-21T14:13:35.047Z,73.05
2023-03-21T14:17:39.291Z,73.55
2023-03-21T14:21:49.577Z,73.93
2023-03-21T14:25:52.277Z,73.60
2023-03-21T14:29:55.196Z,72.45
2023-03-21T14:33:58.687Z,71.81
2023-03-21T14:38:04.527Z,71.09
2023-03-21T14:42:07.963Z,71.17
2023-03-21T14:46:13.385Z,70.84
2023-03-21T14:50:14.879Z,71.62
2023-03-21T14:54:18.360Z,70.77
2023-03-21T14:58:19.873Z,70.70
2023-03-21T15:02:25.510Z,70.25
2023-03-21T15:06:26.984Z,69.78
2023-03-21T15:10:31.181Z,69.76
2023-03-21T15:14:35.124Z,69.72
2023-03-21T15:18:39.661Z,68.32
2023-03-21T15:22:45.752Z,65.54
2023-03-21T15:26:50.240Z,64.81
2023-03-21T15:30:53.512Z,64.33
2023-03-21T15:35:04.725Z,63.28
2023-03-21T15:39:08.672Z,62.85
2023-03-21T15:43:15.852Z,61.73
2023-03-21T15:47:35.782Z,61.20
2023-03-21T15:51:37.367Z,60.98
2023-03-21T15:55:44.178Z,61.07
2023-03-21T15:59:47.080Z,59.88
2023-03-21T16:03:55.386Z,59.41
2023-03-21T16:08:04.607Z,58.79
2023-03-21T16:12:10.696Z,60.20
2023-03-21T16:16:18.448Z,60.20
2023-03-21T16:20:24.046Z,61.73
2023-03-21T16:24:25.465Z,61.38
2023-03-21T16:28:26.897Z,63.59
2023-03-21T16:32:29.955Z,63.10
2023-03-21T16:36:33.795Z,62.77
2023-03-21T16:40:37.686Z,62.65
2023-03-21T16:44:40.315Z,62.32
2023-03-21T16:48:45.259Z,63.45
2023-03-21T16:52:46.654Z,65.27
2023-03-21T16:56:50.745Z,60.74
2023-03-21T17:00:52.437Z,61.25
2023-03-21T17:04:55.358Z,60.28
2023-03-21T17:08:57.922Z,58.88
2023-03-21T17:12:59.701Z,62.20
2023-03-21T17:17:01.343Z,60.69
2023-03-21T17:21:11.738Z,61.58
2023-03-21T17:25:13.581Z,60.82
2023-03-21T17:29:15.532Z,60.23
2023-03-21T17:33:17.241Z,61.89
2023-03-21T17:37:20.368Z,62.22
2023-03-21T17:41:21.820Z,60.14
2023-03-21T17:45:26.223Z,62.63
2023-03-21T17:49:27.812Z,62.87
2023-03-21T17:53:31.176Z,61.71
2023-03-21T17:57:32.834Z,62.56
2023-03-21T18:01:34.585Z,60.43
2023-03-21T18:05:36.058Z,60.89
2023-03-21T18:09:38.858Z,60.29
2023-03-21T18:13:40.882Z,61.49
2023-03-21T18:17:43.458Z,60.20
2023-03-21T18:21:45.892Z,60.33
2023-03-21T18:25:49.224Z,60.53
2023-03-21T18:34:11.958Z,61.00
2023-03-21T18:38:13.799Z,61.08
2023-03-21T18:42:19.038Z,63.01
2023-03-21T18:46:24.508Z,62.06
2023-03-21T18:50:26.213Z,61.48
2023-03-21T18:54:28.673Z,61.55
2023-03-21T18:58:31.524Z,61.87
2023-03-21T19:02:33.400Z,62.63
2023-03-21T19:06:34.962Z,62.30
2023-03-21T19:10:37.040Z,62.35
2023-03-21T19:14:40.196Z,62.68
2023-03-21T19:18:57.652Z,62.89
2023-03-21T19:22:59.216Z,64.78
2023-03-21T19:27:00.602Z,63.79
2023-03-21T19:31:05.499Z,63.06
2023-03-21T19:35:07.551Z,64.94
2023-03-21T19:39:09.832Z,63.86
2023-03-21T19:43:31.870Z,64.19
2023-03-21T19:47:34.392Z,63.54
2023-03-21T19:51:36.215Z,64.84
2023-03-21T19:55:37.942Z,64.35
2023-03-21T19:59:39.382Z,65.70
2023-03-21T20:03:42.755Z,65.57
2023-03-21T20:07:44.227Z,65.32
2023-03-21T20:11:45.667Z,66.17
2023-03-21T20:15:48.259Z,65.96
2023-03-21T20:19:51.209Z,67.10
2023-03-21T20:23:52.780Z,66.91
2023-03-21T20:28:12.663Z,67.24
2023-03-21T20:32:15.878Z,68.31
2023-03-21T20:36:38.061Z,67.97
2023-03-21T20:40:40.976Z,68.17
2023-03-21T20:44:57.136Z,70.39
2023-03-21T20:48:59.611Z,68.73
2023-03-21T20:53:07.360Z,69.21
2023-03-21T20:57:09.307Z,68.91
2023-03-21T21:01:10.891Z,68.40
2023-03-21T21:05:25.316Z,68.69
2023-03-21T21:09:30.469Z,69.75
2023-03-21T21:13:31.890Z,73.29
2023-03-21T21:18:02.088Z,71.69
2023-03-21T21:21:54.732Z,71.32
2023-03-21T21:25:57.764Z,71.62
2023-03-21T21:29:59.339Z,71.91
2023-03-21T21:34:01.004Z,72.31
2023-03-21T21:38:02.554Z,73.34
2023-03-21T21:42:05.570Z,74.17
2023-03-21T21:46:07.222Z,74.52
2023-03-21T21:50:09.214Z,76.24
2023-03-21T21:54:10.646Z,76.08
2023-03-21T21:58:13.385Z,76.83
2023-03-21T22:02:14.776Z,77.24
2023-03-21T22:06:16.186Z,78.35
2023-03-21T22:10:18.507Z,78.12
2023-03-21T22:14:21.531Z,79.00
2023-03-21T22:18:23.090Z,78.66
2023-03-21T22:22:24.879Z,79.17
2023-03-21T22:26:26.349Z,79.15
2023-03-21T22:30:29.517Z,78.63
2023-03-21T22:34:30.970Z,79.86
2023-03-21T22:38:32.386Z,79.59
2023-03-21T22:42:34.203Z,77.70
2023-03-21T22:46:37.175Z,77.20
2023-03-21T22:50:38.852Z,76.05
2023-03-21T22:54:40.558Z,75.83
2023-03-21T22:58:41.998Z,75.79
2023-03-21T23:02:44.749Z,74.94
2023-03-21T23:06:46.184Z,74.78
2023-03-21T23:10:47.657Z,75.98
2023-03-21T23:14:49.205Z,75.71
2023-03-21T23:18:52.224Z,76.08
2023-03-21T23:22:55.415Z,77.26
2023-03-21T23:26:56.835Z,79.03
2023-03-21T23:30:58.297Z,77.10
2023-03-21T23:35:01.060Z,76.66
2023-03-21T23:39:02.493Z,76.24
2023-03-21T23:43:04.117Z,77.04
2023-03-21T23:47:05.845Z,76.54
2023-03-21T23:51:09.088Z,76.81
2023-03-21T23:55:10.691Z,76.75
2023-03-21T23:59:12.333Z,77.16
